sensor_id;sensor_type;location;lat;lon;timestamp;P1;durP1;ratioP1;P2;durP2;ratioP2
62673;SDS011;62269;47.594;17.638;2023-01-24T00:00:33;22.48;;;17.35;;
62673;SDS011;62269;47.594;17.638;2023-01-24T00:01:20;23.98;;;17.12;;
62673;SDS011;62269;47.594;17.638;2023-01-24T00:02:08;19.80;;;16.85;;
62673;SDS011;62269;47.594;17.638;2023-01-24T00:02:55;24.45;;;17.87;;
62673;SDS011;62269;47.594;17.638;2023-01-24T00:03:42;21.58;;;18.00;;
62673;SDS011;62269;47.594;17.638;2023-01-24T00:04:29;22.60;;;17.35;;
62673;SDS011;62269;47.594;17.638;2023-01-24T00:05:16;23.65;;;17.02;;
62673;SDS011;62269;47.594;17.638;2023-01-24T00:06:03;22.25;;;17.40;;
62673;SDS011;62269;47.594;17.638;2023-01-24T00:06:50;24.87;;;19.12;;
62673;SDS011;62269;47.594;17.638;2023-01-24T00:07:37;24.25;;;17.73;;
62673;SDS011;62269;47.594;17.638;2023-01-24T00:08:24;23.67;;;17.65;;
62673;SDS011;62269;47.594;17.638;2023-01-24T00:09:11;20.83;;;16.37;;
62673;SDS011;62269;47.594;17.638;2023-01-24T00:09:58;24.55;;;17.60;;
62673;SDS011;62269;47.594;17.638;2023-01-24T00:10:45;24.85;;;18.37;;
62673;SDS011;62269;47.594;17.638;2023-01-24T00:11:33;23.27;;;18.40;;
62673;SDS011;62269;47.594;17.638;2023-01-24T00:12:20;23.23;;;18.17;;
62673;SDS011;62269;47.594;17.638;2023-01-24T00:13:07;24.87;;;18.12;;
62673;SDS011;62269;47.594;17.638;2023-01-24T00:13:56;22.03;;;17.53;;
62673;SDS011;62269;47.594;17.638;2023-01-24T00:14:43;23.48;;;17.98;;
62673;SDS011;62269;47.594;17.638;2023-01-24T00:15:30;23.05;;;18.77;;
62673;SDS011;62269;47.594;17.638;2023-01-24T00:16:19;24.25;;;18.27;;
62673;SDS011;62269;47.594;17.638;2023-01-24T00:17:07;25.75;;;18.33;;
62673;SDS011;62269;47.594;17.638;2023-01-24T00:17:56;25.48;;;18.58;;
62673;SDS011;62269;47.594;17.638;2023-01-24T00:18:43;24.60;;;18.70;;
62673;SDS011;62269;47.594;17.638;2023-01-24T00:19:31;24.67;;;18.48;;
62673;SDS011;62269;47.594;17.638;2023-01-24T00:20:18;23.83;;;18.50;;
62673;SDS011;62269;47.594;17.638;2023-01-24T00:21:06;24.50;;;16.98;;
62673;SDS011;62269;47.594;17.638;2023-01-24T00:21:55;24.37;;;17.85;;
62673;SDS011;62269;47.594;17.638;2023-01-24T00:22:42;23.55;;;17.75;;
62673;SDS011;62269;47.594;17.638;2023-01-24T00:23:29;26.23;;;18.50;;
62673;SDS011;62269;47.594;17.638;2023-01-24T00:24:16;23.60;;;17.33;;
62673;SDS011;62269;47.594;17.638;2023-01-24T00:25:03;24.27;;;17.45;;
62673;SDS011;62269;47.594;17.638;2023-01-24T00:25:50;22.87;;;16.17;;
62673;SDS011;62269;47.594;17.638;2023-01-24T00:26:37;24.05;;;16.37;;
62673;SDS011;62269;47.594;17.638;2023-01-24T00:27:24;25.65;;;18.20;;
62673;SDS011;62269;47.594;17.638;2023-01-24T00:28:11;24.10;;;18.00;;
62673;SDS011;62269;47.594;17.638;2023-01-24T00:28:58;25.52;;;18.58;;
62673;SDS011;62269;47.594;17.638;2023-01-24T00:29:45;22.10;;;17.98;;
62673;SDS011;62269;47.594;17.638;2023-01-24T00:30:32;24.63;;;18.58;;
62673;SDS011;62269;47.594;17.638;2023-01-24T00:31:19;21.37;;;17.45;;
62673;SDS011;62269;47.594;17.638;2023-01-24T00:32:06;23.70;;;19.25;;
62673;SDS011;62269;47.594;17.638;2023-01-24T00:32:53;22.87;;;17.50;;
62673;SDS011;62269;47.594;17.638;2023-01-24T00:33:40;21.10;;;16.65;;
62673;SDS011;62269;47.594;17.638;2023-01-24T00:34:27;22.77;;;16.87;;
62673;SDS011;62269;47.594;17.638;2023-01-24T00:35:14;25.12;;;18.77;;
62673;SDS011;62269;47.594;17.638;2023-01-24T00:36:01;24.87;;;18.77;;
62673;SDS011;62269;47.594;17.638;2023-01-24T00:36:48;21.98;;;17.50;;
62673;SDS011;62269;47.594;17.638;2023-01-24T00:37:35;25.20;;;17.90;;
62673;SDS011;62269;47.594;17.638;2023-01-24T00:38:22;24.37;;;17.75;;
62673;SDS011;62269;47.594;17.638;2023-01-24T00:39:10;22.30;;;16.60;;
62673;SDS011;62269;47.594;17.638;2023-01-24T00:39:57;23.95;;;18.52;;
62673;SDS011;62269;47.594;17.638;2023-01-24T00:40:44;22.52;;;17.55;;
62673;SDS011;62269;47.594;17.638;2023-01-24T00:41:31;24.58;;;18.23;;
62673;SDS011;62269;47.594;17.638;2023-01-24T00:42:18;26.25;;;18.35;;
62673;SDS011;62269;47.594;17.638;2023-01-24T00:43:05;26.42;;;18.70;;
62673;SDS011;62269;47.594;17.638;2023-01-24T00:43:52;25.83;;;19.08;;
62673;SDS011;62269;47.594;17.638;2023-01-24T00:44:39;25.92;;;17.98;;
62673;SDS011;62269;47.594;17.638;2023-01-24T00:45:26;23.90;;;18.87;;
62673;SDS011;62269;47.594;17.638;2023-01-24T00:46:13;21.85;;;17.83;;
62673;SDS011;62269;47.594;17.638;2023-01-24T00:47:00;23.58;;;18.45;;
62673;SDS011;62269;47.594;17.638;2023-01-24T00:47:46;22.10;;;17.27;;
62673;SDS011;62269;47.594;17.638;2023-01-24T00:48:33;25.05;;;18.48;;
62673;SDS011;62269;47.594;17.638;2023-01-24T00:49:20;22.52;;;17.85;;
62673;SDS011;62269;47.594;17.638;2023-01-24T00:50:08;25.15;;;17.85;;
62673;SDS011;62269;47.594;17.638;2023-01-24T00:50:55;27.17;;;17.92;;
62673;SDS011;62269;47.594;17.638;2023-01-24T00:51:42;23.12;;;18.05;;
62673;SDS011;62269;47.594;17.638;2023-01-24T00:52:29;24.02;;;17.58;;
62673;SDS011;62269;47.594;17.638;2023-01-24T00:53:16;24.05;;;18.40;;
62673;SDS011;62269;47.594;17.638;2023-01-24T00:54:04;23.20;;;17.73;;
62673;SDS011;62269;47.594;17.638;2023-01-24T00:54:51;23.55;;;18.80;;
62673;SDS011;62269;47.594;17.638;2023-01-24T00:55:42;23.35;;;17.35;;
62673;SDS011;62269;47.594;17.638;2023-01-24T00:56:31;26.90;;;17.37;;
62673;SDS011;62269;47.594;17.638;2023-01-24T00:57:18;24.70;;;17.50;;
62673;SDS011;62269;47.594;17.638;2023-01-24T00:58:05;25.00;;;17.95;;
62673;SDS011;62269;47.594;17.638;2023-01-24T00:58:52;23.38;;;16.33;;
62673;SDS011;62269;47.594;17.638;2023-01-24T00:59:39;23.83;;;17.62;;
62673;SDS011;62269;47.594;17.638;2023-01-24T01:00:28;24.33;;;17.12;;
62673;SDS011;62269;47.594;17.638;2023-01-24T01:01:15;20.17;;;16.67;;
62673;SDS011;62269;47.594;17.638;2023-01-24T01:02:01;22.13;;;16.98;;
62673;SDS011;62269;47.594;17.638;2023-01-24T01:02:49;22.65;;;17.45;;
62673;SDS011;62269;47.594;17.638;2023-01-24T01:03:36;22.17;;;17.40;;
62673;SDS011;62269;47.594;17.638;2023-01-24T01:04:23;24.40;;;17.17;;
62673;SDS011;62269;47.594;17.638;2023-01-24T01:05:10;26.05;;;18.48;;
62673;SDS011;62269;47.594;17.638;2023-01-24T01:06:04;23.00;;;17.35;;
62673;SDS011;62269;47.594;17.638;2023-01-24T01:06:53;24.95;;;18.30;;
62673;SDS011;62269;47.594;17.638;2023-01-24T01:07:39;24.60;;;17.75;;
62673;SDS011;62269;47.594;17.638;2023-01-24T01:08:26;21.00;;;17.23;;
62673;SDS011;62269;47.594;17.638;2023-01-24T01:09:14;23.35;;;17.67;;
62673;SDS011;62269;47.594;17.638;2023-01-24T01:10:01;20.20;;;16.77;;
62673;SDS011;62269;47.594;17.638;2023-01-24T01:10:48;22.95;;;16.92;;
62673;SDS011;62269;47.594;17.638;2023-01-24T01:11:36;23.60;;;17.20;;
62673;SDS011;62269;47.594;17.638;2023-01-24T01:12:27;23.52;;;17.73;;
62673;SDS011;62269;47.594;17.638;2023-01-24T01:13:14;24.67;;;18.02;;
62673;SDS011;62269;47.594;17.638;2023-01-24T01:14:01;21.52;;;17.45;;
62673;SDS011;62269;47.594;17.638;2023-01-24T01:14:48;22.75;;;17.92;;
62673;SDS011;62269;47.594;17.638;2023-01-24T01:15:35;22.30;;;17.10;;
62673;SDS011;62269;47.594;17.638;2023-01-24T01:16:24;22.48;;;17.30;;
62673;SDS011;62269;47.594;17.638;2023-01-24T01:17:11;24.20;;;17.73;;
62673;SDS011;62269;47.594;17.638;2023-01-24T01:17:58;24.10;;;17.77;;
62673;SDS011;62269;47.594;17.638;2023-01-24T01:18:45;22.67;;;17.17;;
62673;SDS011;62269;47.594;17.638;2023-01-24T01:19:33;24.08;;;17.70;;
62673;SDS011;62269;47.594;17.638;2023-01-24T01:20:20;23.50;;;18.08;;
62673;SDS011;62269;47.594;17.638;2023-01-24T01:21:09;23.05;;;17.65;;
62673;SDS011;62269;47.594;17.638;2023-01-24T01:22:00;23.52;;;18.33;;
62673;SDS011;62269;47.594;17.638;2023-01-24T01:22:47;23.27;;;18.30;;
62673;SDS011;62269;47.594;17.638;2023-01-24T01:23:34;22.15;;;17.30;;
62673;SDS011;62269;47.594;17.638;2023-01-24T01:24:21;27.10;;;17.87;;
62673;SDS011;62269;47.594;17.638;2023-01-24T01:25:08;21.17;;;15.88;;
62673;SDS011;62269;47.594;17.638;2023-01-24T01:26:02;24.37;;;18.40;;
62673;SDS011;62269;47.594;17.638;2023-01-24T01:26:50;23.25;;;16.77;;
62673;SDS011;62269;47.594;17.638;2023-01-24T01:27:37;23.08;;;17.48;;
62673;SDS011;62269;47.594;17.638;2023-01-24T01:28:24;22.23;;;18.27;;
62673;SDS011;62269;47.594;17.638;2023-01-24T01:29:11;23.50;;;17.50;;
62673;SDS011;62269;47.594;17.638;2023-01-24T01:29:57;25.25;;;17.33;;
62673;SDS011;62269;47.594;17.638;2023-01-24T01:30:48;22.83;;;17.15;;
62673;SDS011;62269;47.594;17.638;2023-01-24T01:31:38;24.27;;;17.87;;
62673;SDS011;62269;47.594;17.638;2023-01-24T01:32:25;22.13;;;17.40;;
62673;SDS011;62269;47.594;17.638;2023-01-24T01:33:12;26.58;;;18.27;;
62673;SDS011;62269;47.594;17.638;2023-01-24T01:33:59;26.35;;;18.12;;
62673;SDS011;62269;47.594;17.638;2023-01-24T01:34:46;23.50;;;17.35;;
62673;SDS011;62269;47.594;17.638;2023-01-24T01:35:33;24.40;;;18.30;;
62673;SDS011;62269;47.594;17.638;2023-01-24T01:36:20;22.37;;;17.12;;
62673;SDS011;62269;47.594;17.638;2023-01-24T01:37:06;24.30;;;18.10;;
62673;SDS011;62269;47.594;17.638;2023-01-24T01:37:53;27.45;;;19.05;;
62673;SDS011;62269;47.594;17.638;2023-01-24T01:38:40;23.52;;;18.27;;
62673;SDS011;62269;47.594;17.638;2023-01-24T01:39:27;25.35;;;18.30;;
62673;SDS011;62269;47.594;17.638;2023-01-24T01:40:15;21.67;;;17.40;;
62673;SDS011;62269;47.594;17.638;2023-01-24T01:41:03;23.70;;;18.17;;
62673;SDS011;62269;47.594;17.638;2023-01-24T01:41:51;24.52;;;17.67;;
62673;SDS011;62269;47.594;17.638;2023-01-24T01:42:47;22.65;;;17.12;;
62673;SDS011;62269;47.594;17.638;2023-01-24T01:43:38;21.08;;;16.52;;
62673;SDS011;62269;47.594;17.638;2023-01-24T01:44:46;23.80;;;17.90;;
62673;SDS011;62269;47.594;17.638;2023-01-24T01:46:26;24.48;;;18.12;;
62673;SDS011;62269;47.594;17.638;2023-01-24T01:48:15;21.37;;;17.55;;
62673;SDS011;62269;47.594;17.638;2023-01-24T01:49:05;23.83;;;18.12;;
62673;SDS011;62269;47.594;17.638;2023-01-24T01:50:53;24.67;;;18.15;;
62673;SDS011;62269;47.594;17.638;2023-01-24T01:51:49;23.80;;;18.20;;
62673;SDS011;62269;47.594;17.638;2023-01-24T01:52:39;24.58;;;19.10;;
62673;SDS011;62269;47.594;17.638;2023-01-24T01:53:28;23.02;;;18.48;;
62673;SDS011;62269;47.594;17.638;2023-01-24T01:54:25;24.63;;;17.67;;
62673;SDS011;62269;47.594;17.638;2023-01-24T01:55:15;24.15;;;17.58;;
62673;SDS011;62269;47.594;17.638;2023-01-24T01:56:57;24.25;;;17.27;;
62673;SDS011;62269;47.594;17.638;2023-01-24T01:57:47;22.75;;;17.90;;
62673;SDS011;62269;47.594;17.638;2023-01-24T01:58:35;25.55;;;18.90;;
62673;SDS011;62269;47.594;17.638;2023-01-24T01:59:24;26.02;;;17.98;;
62673;SDS011;62269;47.594;17.638;2023-01-24T02:01:06;24.42;;;17.48;;
62673;SDS011;62269;47.594;17.638;2023-01-24T02:01:55;24.63;;;17.08;;
62673;SDS011;62269;47.594;17.638;2023-01-24T02:03:02;24.00;;;17.75;;
62673;SDS011;62269;47.594;17.638;2023-01-24T02:04:14;25.95;;;16.70;;
62673;SDS011;62269;47.594;17.638;2023-01-24T02:05:05;26.15;;;18.23;;
62673;SDS011;62269;47.594;17.638;2023-01-24T02:05:52;26.08;;;17.85;;
62673;SDS011;62269;47.594;17.638;2023-01-24T02:06:46;23.45;;;18.73;;
62673;SDS011;62269;47.594;17.638;2023-01-24T02:08:01;25.50;;;18.02;;
62673;SDS011;62269;47.594;17.638;2023-01-24T02:08:50;23.65;;;17.35;;
62673;SDS011;62269;47.594;17.638;2023-01-24T02:09:41;27.05;;;19.20;;
62673;SDS011;62269;47.594;17.638;2023-01-24T02:10:30;26.10;;;18.73;;
62673;SDS011;62269;47.594;17.638;2023-01-24T02:11:36;23.00;;;17.42;;
62673;SDS011;62269;47.594;17.638;2023-01-24T02:12:26;22.98;;;18.40;;
62673;SDS011;62269;47.594;17.638;2023-01-24T02:14:02;22.05;;;16.80;;
62673;SDS011;62269;47.594;17.638;2023-01-24T02:15:19;22.62;;;17.23;;
62673;SDS011;62269;47.594;17.638;2023-01-24T02:16:25;25.50;;;17.80;;
62673;SDS011;62269;47.594;17.638;2023-01-24T02:17:15;27.48;;;18.33;;
62673;SDS011;62269;47.594;17.638;2023-01-24T02:18:03;25.17;;;19.00;;
62673;SDS011;62269;47.594;17.638;2023-01-24T02:18:52;27.67;;;18.55;;
62673;SDS011;62269;47.594;17.638;2023-01-24T02:19:50;23.92;;;17.60;;
62673;SDS011;62269;47.594;17.638;2023-01-24T02:21:00;23.98;;;17.33;;
62673;SDS011;62269;47.594;17.638;2023-01-24T02:21:50;23.45;;;17.58;;
62673;SDS011;62269;47.594;17.638;2023-01-24T02:24:36;22.60;;;16.75;;
62673;SDS011;62269;47.594;17.638;2023-01-24T02:26:34;25.12;;;16.65;;
62673;SDS011;62269;47.594;17.638;2023-01-24T02:27:21;25.35;;;18.37;;
62673;SDS011;62269;47.594;17.638;2023-01-24T02:28:08;27.62;;;18.27;;
62673;SDS011;62269;47.594;17.638;2023-01-24T02:29:05;25.00;;;18.05;;
62673;SDS011;62269;47.594;17.638;2023-01-24T02:29:54;27.60;;;18.30;;
62673;SDS011;62269;47.594;17.638;2023-01-24T02:30:42;24.63;;;18.05;;
62673;SDS011;62269;47.594;17.638;2023-01-24T02:31:29;27.65;;;18.98;;
62673;SDS011;62269;47.594;17.638;2023-01-24T02:32:16;25.58;;;16.98;;
62673;SDS011;62269;47.594;17.638;2023-01-24T02:33:23;22.48;;;17.73;;
62673;SDS011;62269;47.594;17.638;2023-01-24T02:34:10;23.83;;;16.95;;
62673;SDS011;62269;47.594;17.638;2023-01-24T02:34:57;24.30;;;18.60;;
62673;SDS011;62269;47.594;17.638;2023-01-24T02:35:43;24.67;;;18.75;;
62673;SDS011;62269;47.594;17.638;2023-01-24T02:36:37;25.40;;;19.00;;
62673;SDS011;62269;47.594;17.638;2023-01-24T02:37:24;24.87;;;18.67;;
62673;SDS011;62269;47.594;17.638;2023-01-24T02:38:21;26.55;;;18.12;;
62673;SDS011;62269;47.594;17.638;2023-01-24T02:39:59;26.90;;;19.08;;
62673;SDS011;62269;47.594;17.638;2023-01-24T02:40:50;25.90;;;19.55;;
62673;SDS011;62269;47.594;17.638;2023-01-24T02:41:48;26.60;;;19.12;;
62673;SDS011;62269;47.594;17.638;2023-01-24T02:42:37;26.83;;;19.08;;
62673;SDS011;62269;47.594;17.638;2023-01-24T02:43:25;25.35;;;19.45;;
62673;SDS011;62269;47.594;17.638;2023-01-24T02:45:30;26.58;;;18.80;;
62673;SDS011;62269;47.594;17.638;2023-01-24T02:46:18;25.70;;;18.00;;
62673;SDS011;62269;47.594;17.638;2023-01-24T02:47:05;26.90;;;19.40;;
62673;SDS011;62269;47.594;17.638;2023-01-24T02:47:52;23.77;;;18.95;;
62673;SDS011;62269;47.594;17.638;2023-01-24T02:48:40;25.08;;;18.33;;
62673;SDS011;62269;47.594;17.638;2023-01-24T02:49:27;26.27;;;18.08;;
62673;SDS011;62269;47.594;17.638;2023-01-24T02:50:15;29.90;;;20.80;;
62673;SDS011;62269;47.594;17.638;2023-01-24T02:51:05;27.52;;;18.70;;
62673;SDS011;62269;47.594;17.638;2023-01-24T02:52:10;28.23;;;19.40;;
62673;SDS011;62269;47.594;17.638;2023-01-24T02:53:26;25.65;;;18.77;;
62673;SDS011;62269;47.594;17.638;2023-01-24T02:54:16;27.85;;;18.37;;
62673;SDS011;62269;47.594;17.638;2023-01-24T02:55:03;26.40;;;19.87;;
62673;SDS011;62269;47.594;17.638;2023-01-24T02:55:51;26.67;;;19.67;;
62673;SDS011;62269;47.594;17.638;2023-01-24T02:56:56;24.63;;;19.08;;
62673;SDS011;62269;47.594;17.638;2023-01-24T02:58:02;26.30;;;16.65;;
62673;SDS011;62269;47.594;17.638;2023-01-24T02:58:52;23.60;;;17.17;;
62673;SDS011;62269;47.594;17.638;2023-01-24T02:59:39;25.55;;;18.02;;
62673;SDS011;62269;47.594;17.638;2023-01-24T03:00:26;24.58;;;17.77;;
62673;SDS011;62269;47.594;17.638;2023-01-24T03:01:13;25.98;;;17.77;;
62673;SDS011;62269;47.594;17.638;2023-01-24T03:02:01;25.12;;;18.92;;
62673;SDS011;62269;47.594;17.638;2023-01-24T03:02:48;24.48;;;18.42;;
62673;SDS011;62269;47.594;17.638;2023-01-24T03:03:35;23.58;;;18.02;;
62673;SDS011;62269;47.594;17.638;2023-01-24T03:04:22;21.98;;;17.52;;
62673;SDS011;62269;47.594;17.638;2023-01-24T03:05:09;24.02;;;18.52;;
62673;SDS011;62269;47.594;17.638;2023-01-24T03:05:56;23.80;;;18.35;;
62673;SDS011;62269;47.594;17.638;2023-01-24T03:06:44;27.00;;;19.37;;
62673;SDS011;62269;47.594;17.638;2023-01-24T03:07:30;26.42;;;19.25;;
62673;SDS011;62269;47.594;17.638;2023-01-24T03:08:29;23.85;;;18.20;;
62673;SDS011;62269;47.594;17.638;2023-01-24T03:09:17;26.27;;;19.15;;
62673;SDS011;62269;47.594;17.638;2023-01-24T03:10:05;25.25;;;17.80;;
62673;SDS011;62269;47.594;17.638;2023-01-24T03:10:52;26.42;;;19.48;;
62673;SDS011;62269;47.594;17.638;2023-01-24T03:11:39;25.98;;;19.15;;
62673;SDS011;62269;47.594;17.638;2023-01-24T03:12:26;22.37;;;17.50;;
62673;SDS011;62269;47.594;17.638;2023-01-24T03:13:32;22.58;;;16.55;;
62673;SDS011;62269;47.594;17.638;2023-01-24T03:14:38;23.92;;;17.58;;
62673;SDS011;62269;47.594;17.638;2023-01-24T03:15:43;26.80;;;18.33;;
62673;SDS011;62269;47.594;17.638;2023-01-24T03:16:49;22.73;;;17.60;;
62673;SDS011;62269;47.594;17.638;2023-01-24T03:17:57;25.58;;;17.10;;
62673;SDS011;62269;47.594;17.638;2023-01-24T03:19:03;27.13;;;17.30;;
62673;SDS011;62269;47.594;17.638;2023-01-24T03:20:09;24.55;;;17.45;;
62673;SDS011;62269;47.594;17.638;2023-01-24T03:21:15;25.73;;;17.50;;
62673;SDS011;62269;47.594;17.638;2023-01-24T03:22:21;24.25;;;16.15;;
62673;SDS011;62269;47.594;17.638;2023-01-24T03:23:27;20.37;;;15.55;;
62673;SDS011;62269;47.594;17.638;2023-01-24T03:24:32;24.98;;;17.67;;
62673;SDS011;62269;47.594;17.638;2023-01-24T03:25:38;26.17;;;17.95;;
62673;SDS011;62269;47.594;17.638;2023-01-24T03:26:44;23.92;;;17.02;;
62673;SDS011;62269;47.594;17.638;2023-01-24T03:27:49;24.98;;;17.23;;
62673;SDS011;62269;47.594;17.638;2023-01-24T03:28:55;26.55;;;17.77;;
62673;SDS011;62269;47.594;17.638;2023-01-24T03:30:00;22.55;;;17.12;;
62673;SDS011;62269;47.594;17.638;2023-01-24T03:31:06;24.77;;;16.73;;
62673;SDS011;62269;47.594;17.638;2023-01-24T03:32:12;26.62;;;18.12;;
62673;SDS011;62269;47.594;17.638;2023-01-24T03:33:18;24.55;;;16.77;;
62673;SDS011;62269;47.594;17.638;2023-01-24T03:34:23;22.98;;;17.02;;
62673;SDS011;62269;47.594;17.638;2023-01-24T03:35:20;21.87;;;15.63;;
62673;SDS011;62269;47.594;17.638;2023-01-24T03:36:07;27.67;;;17.48;;
62673;SDS011;62269;47.594;17.638;2023-01-24T03:36:54;23.45;;;16.70;;
62673;SDS011;62269;47.594;17.638;2023-01-24T03:37:41;24.10;;;18.17;;
62673;SDS011;62269;47.594;17.638;2023-01-24T03:38:47;25.05;;;18.10;;
62673;SDS011;62269;47.594;17.638;2023-01-24T03:39:52;26.90;;;18.65;;
62673;SDS011;62269;47.594;17.638;2023-01-24T03:40:46;27.02;;;17.85;;
62673;SDS011;62269;47.594;17.638;2023-01-24T03:41:34;25.48;;;19.15;;
62673;SDS011;62269;47.594;17.638;2023-01-24T03:42:21;26.58;;;18.12;;
62673;SDS011;62269;47.594;17.638;2023-01-24T03:43:08;24.27;;;19.08;;
62673;SDS011;62269;47.594;17.638;2023-01-24T03:43:55;25.83;;;18.77;;
62673;SDS011;62269;47.594;17.638;2023-01-24T03:44:42;24.77;;;19.17;;
62673;SDS011;62269;47.594;17.638;2023-01-24T03:45:30;27.08;;;19.75;;
62673;SDS011;62269;47.594;17.638;2023-01-24T03:46:20;26.37;;;18.62;;
62673;SDS011;62269;47.594;17.638;2023-01-24T03:47:07;25.92;;;19.42;;
62673;SDS011;62269;47.594;17.638;2023-01-24T03:47:58;26.48;;;18.65;;
62673;SDS011;62269;47.594;17.638;2023-01-24T03:48:46;25.95;;;19.23;;
62673;SDS011;62269;47.594;17.638;2023-01-24T03:49:33;27.98;;;20.00;;
62673;SDS011;62269;47.594;17.638;2023-01-24T03:50:39;27.25;;;18.95;;
62673;SDS011;62269;47.594;17.638;2023-01-24T03:51:47;25.52;;;18.00;;
62673;SDS011;62269;47.594;17.638;2023-01-24T03:52:53;30.88;;;20.25;;
62673;SDS011;62269;47.594;17.638;2023-01-24T03:53:40;25.75;;;18.70;;
62673;SDS011;62269;47.594;17.638;2023-01-24T03:54:27;26.50;;;19.40;;
62673;SDS011;62269;47.594;17.638;2023-01-24T03:55:14;26.23;;;19.00;;
62673;SDS011;62269;47.594;17.638;2023-01-24T03:56:01;29.90;;;19.67;;
62673;SDS011;62269;47.594;17.638;2023-01-24T03:56:48;25.75;;;19.02;;
62673;SDS011;62269;47.594;17.638;2023-01-24T03:57:36;29.20;;;20.37;;
62673;SDS011;62269;47.594;17.638;2023-01-24T03:58:23;26.92;;;19.58;;
62673;SDS011;62269;47.594;17.638;2023-01-24T03:59:10;32.28;;;19.95;;
62673;SDS011;62269;47.594;17.638;2023-01-24T03:59:57;29.65;;;19.80;;
62673;SDS011;62269;47.594;17.638;2023-01-24T04:00:44;29.37;;;21.02;;
62673;SDS011;62269;47.594;17.638;2023-01-24T04:01:31;27.35;;;19.33;;
62673;SDS011;62269;47.594;17.638;2023-01-24T04:02:18;29.60;;;18.92;;
62673;SDS011;62269;47.594;17.638;2023-01-24T04:03:06;28.25;;;20.92;;
62673;SDS011;62269;47.594;17.638;2023-01-24T04:03:53;26.73;;;18.42;;
62673;SDS011;62269;47.594;17.638;2023-01-24T04:04:40;30.40;;;20.73;;
62673;SDS011;62269;47.594;17.638;2023-01-24T04:05:46;25.55;;;19.80;;
62673;SDS011;62269;47.594;17.638;2023-01-24T04:06:34;29.10;;;19.15;;
62673;SDS011;62269;47.594;17.638;2023-01-24T04:07:21;26.67;;;20.08;;
62673;SDS011;62269;47.594;17.638;2023-01-24T04:08:12;27.30;;;20.83;;
62673;SDS011;62269;47.594;17.638;2023-01-24T04:08:59;29.30;;;20.90;;
62673;SDS011;62269;47.594;17.638;2023-01-24T04:09:46;30.85;;;21.65;;
62673;SDS011;62269;47.594;17.638;2023-01-24T04:10:33;26.98;;;20.10;;
62673;SDS011;62269;47.594;17.638;2023-01-24T04:11:20;33.60;;;21.60;;
62673;SDS011;62269;47.594;17.638;2023-01-24T04:12:07;30.02;;;21.33;;
62673;SDS011;62269;47.594;17.638;2023-01-24T04:12:54;27.23;;;20.30;;
62673;SDS011;62269;47.594;17.638;2023-01-24T04:13:42;26.85;;;20.40;;
62673;SDS011;62269;47.594;17.638;2023-01-24T04:14:29;31.33;;;20.65;;
62673;SDS011;62269;47.594;17.638;2023-01-24T04:15:17;31.05;;;21.45;;
62673;SDS011;62269;47.594;17.638;2023-01-24T04:16:08;29.27;;;20.15;;
62673;SDS011;62269;47.594;17.638;2023-01-24T04:16:56;31.37;;;22.08;;
62673;SDS011;62269;47.594;17.638;2023-01-24T04:17:43;32.20;;;21.37;;
62673;SDS011;62269;47.594;17.638;2023-01-24T04:18:30;30.67;;;20.58;;
62673;SDS011;62269;47.594;17.638;2023-01-24T04:19:16;27.27;;;20.75;;
62673;SDS011;62269;47.594;17.638;2023-01-24T04:20:03;28.10;;;21.23;;
62673;SDS011;62269;47.594;17.638;2023-01-24T04:20:51;32.10;;;21.90;;
62673;SDS011;62269;47.594;17.638;2023-01-24T04:21:38;32.15;;;22.23;;
62673;SDS011;62269;47.594;17.638;2023-01-24T04:22:25;28.00;;;21.87;;
62673;SDS011;62269;47.594;17.638;2023-01-24T04:23:13;35.83;;;23.23;;
62673;SDS011;62269;47.594;17.638;2023-01-24T04:24:00;34.83;;;23.55;;
62673;SDS011;62269;47.594;17.638;2023-01-24T04:24:47;31.98;;;20.98;;
62673;SDS011;62269;47.594;17.638;2023-01-24T04:25:34;27.62;;;19.40;;
62673;SDS011;62269;47.594;17.638;2023-01-24T04:26:21;31.87;;;21.92;;
62673;SDS011;62269;47.594;17.638;2023-01-24T04:27:07;30.05;;;21.23;;
62673;SDS011;62269;47.594;17.638;2023-01-24T04:27:55;29.90;;;19.87;;
62673;SDS011;62269;47.594;17.638;2023-01-24T04:28:41;31.30;;;21.58;;
62673;SDS011;62269;47.594;17.638;2023-01-24T04:29:28;33.75;;;21.33;;
62673;SDS011;62269;47.594;17.638;2023-01-24T04:30:16;32.13;;;20.20;;
62673;SDS011;62269;47.594;17.638;2023-01-24T04:31:03;28.52;;;20.33;;
62673;SDS011;62269;47.594;17.638;2023-01-24T04:31:50;29.65;;;21.20;;
62673;SDS011;62269;47.594;17.638;2023-01-24T04:32:37;29.12;;;20.90;;
62673;SDS011;62269;47.594;17.638;2023-01-24T04:33:24;29.27;;;21.05;;
62673;SDS011;62269;47.594;17.638;2023-01-24T04:34:12;32.25;;;21.23;;
62673;SDS011;62269;47.594;17.638;2023-01-24T04:34:59;33.03;;;22.08;;
62673;SDS011;62269;47.594;17.638;2023-01-24T04:35:46;30.35;;;20.35;;
62673;SDS011;62269;47.594;17.638;2023-01-24T04:36:33;30.77;;;22.52;;
62673;SDS011;62269;47.594;17.638;2023-01-24T04:37:20;29.87;;;22.45;;
62673;SDS011;62269;47.594;17.638;2023-01-24T04:38:07;28.08;;;20.52;;
62673;SDS011;62269;47.594;17.638;2023-01-24T04:38:55;32.40;;;23.15;;
62673;SDS011;62269;47.594;17.638;2023-01-24T04:39:42;33.85;;;23.55;;
62673;SDS011;62269;47.594;17.638;2023-01-24T04:40:29;31.23;;;21.65;;
62673;SDS011;62269;47.594;17.638;2023-01-24T04:41:16;31.05;;;21.70;;
62673;SDS011;62269;47.594;17.638;2023-01-24T04:42:02;28.25;;;20.27;;
62673;SDS011;62269;47.594;17.638;2023-01-24T04:42:49;28.42;;;20.62;;
62673;SDS011;62269;47.594;17.638;2023-01-24T04:43:37;30.65;;;20.35;;
62673;SDS011;62269;47.594;17.638;2023-01-24T04:44:23;27.70;;;20.35;;
62673;SDS011;62269;47.594;17.638;2023-01-24T04:45:10;29.50;;;22.23;;
62673;SDS011;62269;47.594;17.638;2023-01-24T04:45:58;28.67;;;20.37;;
62673;SDS011;62269;47.594;17.638;2023-01-24T04:46:45;29.25;;;20.45;;
62673;SDS011;62269;47.594;17.638;2023-01-24T04:47:32;28.62;;;18.52;;
62673;SDS011;62269;47.594;17.638;2023-01-24T04:48:19;28.95;;;19.85;;
62673;SDS011;62269;47.594;17.638;2023-01-24T04:49:06;28.10;;;19.15;;
62673;SDS011;62269;47.594;17.638;2023-01-24T04:49:53;29.98;;;20.77;;
62673;SDS011;62269;47.594;17.638;2023-01-24T04:50:40;25.52;;;18.83;;
62673;SDS011;62269;47.594;17.638;2023-01-24T04:51:26;29.90;;;18.95;;
62673;SDS011;62269;47.594;17.638;2023-01-24T04:52:13;28.40;;;20.05;;
62673;SDS011;62269;47.594;17.638;2023-01-24T04:53:00;25.95;;;19.87;;
62673;SDS011;62269;47.594;17.638;2023-01-24T04:53:47;27.87;;;19.45;;
62673;SDS011;62269;47.594;17.638;2023-01-24T04:54:34;29.85;;;20.48;;
62673;SDS011;62269;47.594;17.638;2023-01-24T04:55:21;28.48;;;19.83;;
62673;SDS011;62269;47.594;17.638;2023-01-24T04:56:08;27.50;;;20.00;;
62673;SDS011;62269;47.594;17.638;2023-01-24T04:56:55;28.40;;;19.98;;
62673;SDS011;62269;47.594;17.638;2023-01-24T04:57:42;27.40;;;20.15;;
62673;SDS011;62269;47.594;17.638;2023-01-24T04:58:29;27.75;;;19.77;;
62673;SDS011;62269;47.594;17.638;2023-01-24T04:59:16;35.92;;;21.80;;